createdAt,value
2023-04-20T00:00:11.329Z,6.31
2023-04-20T00:05:10.633Z,6.20
2023-04-20T00:10:00.559Z,6.14
2023-04-20T00:14:50.883Z,6.03
2023-04-20T00:19:40.653Z,5.95
2023-04-20T00:24:33.002Z,5.98
2023-04-20T00:29:22.952Z,5.85
2023-04-20T00:34:12.784Z,5.85
2023-04-20T00:39:03.097Z,5.75
2023-04-20T00:43:57.397Z,5.86
2023-04-20T00:48:47.638Z,5.85
2023-04-20T00:53:37.700Z,5.87
2023-04-20T00:58:29.047Z,5.75
2023-04-20T01:03:22.852Z,5.82
2023-04-20T01:08:12.839Z,5.73
2023-04-20T01:13:03.574Z,5.68
2023-04-20T01:17:54.033Z,5.64
2023-04-20T01:22:52.068Z,5.50
2023-04-20T01:27:42.504Z,5.37
2023-04-20T01:32:32.526Z,5.39
2023-04-20T01:37:24.964Z,5.31
2023-04-20T01:42:19.096Z,5.09
2023-04-20T01:47:09.431Z,5.21
2023-04-20T01:51:59.446Z,5.25
2023-04-20T01:56:51.583Z,5.06
2023-04-20T02:01:46.350Z,5.11
2023-04-20T02:06:39.350Z,5.23
2023-04-20T02:11:36.026Z,5.06
2023-04-20T02:16:31.875Z,5.04
2023-04-20T02:21:26.342Z,4.85
2023-04-20T02:26:17.064Z,4.91
2023-04-20T02:31:09.530Z,4.98
2023-04-20T02:35:59.741Z,5.01
2023-04-20T02:40:52.347Z,4.84
2023-04-20T02:45:45.613Z,4.85
2023-04-20T02:50:36.645Z,4.67
2023-04-20T02:55:36.142Z,4.93
2023-04-20T03:00:37.031Z,4.94
2023-04-20T03:05:31.029Z,5.20
2023-04-20T03:10:21.852Z,5.20
2023-04-20T03:15:30.357Z,5.06
2023-04-20T03:20:46.173Z,5.10
2023-04-20T03:25:36.286Z,5.24
2023-04-20T03:30:33.476Z,5.14
2023-04-20T03:35:30.280Z,5.33
2023-04-20T03:40:23.370Z,5.33
2023-04-20T03:45:15.835Z,5.51
2023-04-20T03:50:06.103Z,5.57
2023-04-20T03:54:58.200Z,5.52
2023-04-20T03:59:50.601Z,5.74
2023-04-20T04:04:45.602Z,5.87
2023-04-20T04:09:35.770Z,5.91
2023-04-20T04:14:25.933Z,5.96
2023-04-20T04:19:19.035Z,5.97
2023-04-20T04:24:10.129Z,6.00
2023-04-20T04:29:24.933Z,5.98
2023-04-20T04:34:20.917Z,6.03
2023-04-20T04:39:14.418Z,6.05
2023-04-20T04:44:12.394Z,6.01
2023-04-20T04:49:07.654Z,6.08
2023-04-20T04:54:03.134Z,6.08
2023-04-20T04:58:53.317Z,6.18
2023-04-20T05:03:43.189Z,6.16
2023-04-20T05:08:36.897Z,6.22
2023-04-20T05:13:30.397Z,6.20
2023-04-20T05:18:22.555Z,6.18
2023-04-20T05:23:15.035Z,6.26
2023-04-20T05:28:05.640Z,6.22
2023-04-20T05:32:59.438Z,6.25
2023-04-20T05:37:49.796Z,6.63
2023-04-20T05:42:42.914Z,6.80
2023-04-20T05:47:33.308Z,6.72
2023-04-20T05:52:27.445Z,6.53
2023-04-20T05:57:19.089Z,6.74
2023-04-20T06:02:09.169Z,6.76
2023-04-20T06:07:00.318Z,6.73
2023-04-20T06:11:53.754Z,6.74
2023-04-20T06:16:43.693Z,6.81
2023-04-20T06:21:34.042Z,6.82
2023-04-20T06:26:26.263Z,6.38
2023-04-20T06:31:19.496Z,6.46
2023-04-20T06:36:10.225Z,6.65
2023-04-20T06:41:02.772Z,6.76
2023-04-20T06:45:55.470Z,6.87
2023-04-20T06:50:50.685Z,6.99
2023-04-20T06:55:40.741Z,7.04
2023-04-20T07:00:33.520Z,7.16
2023-04-20T07:05:23.746Z,7.03
2023-04-20T07:10:18.004Z,7.24
2023-04-20T07:15:45.368Z,7.24
2023-04-20T07:20:35.381Z,7.19
2023-04-20T07:25:28.196Z,7.42
2023-04-20T07:30:18.972Z,7.34
2023-04-20T07:35:10.192Z,7.31
2023-04-20T07:40:00.167Z,6.89
2023-04-20T07:44:52.953Z,6.76
2023-04-20T07:49:43.849Z,6.61
2023-04-20T07:54:39.872Z,6.54
2023-04-20T07:59:37.123Z,6.61
2023-04-20T08:04:32.182Z,6.38
2023-04-20T08:09:22.198Z,6.33
2023-04-20T08:14:12.240Z,6.19
2023-04-20T08:19:01.988Z,6.28
2023-04-20T08:23:54.825Z,6.09
2023-04-20T08:28:45.132Z,6.16
2023-04-20T08:33:34.925Z,6.15
2023-04-20T08:38:33.727Z,6.10
2023-04-20T08:43:26.958Z,6.06
2023-04-20T08:48:17.211Z,6.13
2023-04-20T08:53:07.612Z,6.11
2023-04-20T08:57:57.397Z,5.95
2023-04-20T09:02:56.997Z,6.04
2023-04-20T09:07:55.610Z,6.18
2023-04-20T09:12:45.982Z,6.10
2023-04-20T09:17:36.486Z,6.18
2023-04-20T09:22:35.285Z,6.00
2023-04-20T09:27:26.461Z,6.34
2023-04-20T09:32:23.916Z,6.19
2023-04-20T09:37:14.414Z,5.99
2023-04-20T09:42:07.798Z,6.49
2023-04-20T09:46:57.667Z,6.46
2023-04-20T09:51:47.973Z,6.87
2023-04-20T09:56:38.179Z,7.30
2023-04-20T10:01:36.131Z,7.70
2023-04-20T10:06:29.268Z,7.84
2023-04-20T10:11:41.226Z,7.67
2023-04-20T10:16:41.855Z,7.50
2023-04-20T10:21:35.174Z,7.72
2023-04-20T10:26:33.330Z,7.49
2023-04-20T10:31:25.553Z,7.48
2023-04-20T10:36:25.519Z,7.45
2023-04-20T10:41:16.434Z,7.45
2023-04-20T10:46:06.215Z,7.39
2023-04-20T10:50:56.440Z,7.11
2023-04-20T10:55:51.933Z,7.16
2023-04-20T11:00:44.145Z,7.43
2023-04-20T11:05:36.170Z,7.56
2023-04-20T11:10:27.797Z,7.45
2023-04-20T11:15:20.584Z,7.44
2023-04-20T11:20:12.513Z,7.43
2023-04-20T11:25:07.004Z,7.44
2023-04-20T11:30:00.135Z,7.91
2023-04-20T11:35:06.415Z,8.02
2023-04-20T11:40:04.584Z,8.58
2023-04-20T11:44:54.162Z,8.72
2023-04-20T11:49:44.058Z,8.50
2023-04-20T11:54:37.018Z,8.75
2023-04-20T11:59:26.848Z,9.25
2023-04-20T12:04:18.011Z,9.86
2023-04-20T12:09:09.112Z,10.02
2023-04-20T12:14:01.480Z,10.02
2023-04-20T12:18:52.079Z,10.12
2023-04-20T12:23:44.461Z,10.53
2023-04-20T12:28:37.066Z,10.49
2023-04-20T12:33:31.423Z,10.68
2023-04-20T12:38:21.216Z,10.68
2023-04-20T12:43:38.976Z,10.30
2023-04-20T12:48:31.219Z,9.81
2023-04-20T12:53:44.772Z,9.71
2023-04-20T12:58:34.333Z,9.50
2023-04-20T13:03:24.341Z,9.35
2023-04-20T13:08:16.732Z,9.09
2023-04-20T13:13:24.313Z,9.12
2023-04-20T13:18:15.568Z,9.58
2023-04-20T13:23:05.825Z,9.69
2023-04-20T13:28:00.663Z,9.68
2023-04-20T13:32:54.118Z,9.99
2023-04-20T13:37:44.542Z,10.05
2023-04-20T13:42:34.603Z,9.64
2023-04-20T13:47:28.040Z,9.32
2023-04-20T13:52:18.029Z,9.48
2023-04-20T13:57:07.671Z,9.57
2023-04-20T14:01:57.270Z,9.55
2023-04-20T14:06:49.582Z,9.44
2023-04-20T14:11:39.160Z,9.77
2023-04-20T14:16:28.951Z,9.63
2023-04-20T14:21:18.832Z,9.66
2023-04-20T14:26:12.204Z,9.65
2023-04-20T14:31:01.881Z,9.90
2023-04-20T14:35:51.640Z,9.92
2023-04-20T14:40:43.239Z,10.10
2023-04-20T14:45:39.448Z,10.09
2023-04-20T14:50:33.185Z,10.15
2023-04-20T14:55:25.984Z,9.87
2023-04-20T15:00:16.396Z,10.01
2023-04-20T15:05:10.838Z,10.00
2023-04-20T15:10:00.999Z,9.88
2023-04-20T15:14:57.042Z,9.91
2023-04-20T15:19:46.771Z,10.02
2023-04-20T15:24:40.116Z,10.03
2023-04-20T15:29:29.836Z,10.04
2023-04-20T15:34:19.633Z,10.16
2023-04-20T15:39:09.701Z,10.17
2023-04-20T15:44:02.422Z,10.06
2023-04-20T15:48:55.145Z,10.04
2023-04-20T15:53:52.398Z,10.28
2023-04-20T15:58:42.026Z,10.62
2023-04-20T16:03:34.984Z,10.58
2023-04-20T16:08:24.712Z,10.76
2023-04-20T16:13:16.618Z,10.67
2023-04-20T16:18:06.523Z,10.85
2023-04-20T16:22:58.942Z,11.05
2023-04-20T16:27:50.021Z,11.05
2023-04-20T16:32:41.587Z,10.94
2023-04-20T16:37:33.769Z,10.97
2023-04-20T16:42:26.113Z,10.73
2023-04-20T16:47:15.744Z,10.81
2023-04-20T16:52:06.851Z,10.58
2023-04-20T16:56:56.633Z,10.39
2023-04-20T17:01:49.073Z,10.42
2023-04-20T17:06:39.713Z,10.22
2023-04-20T17:11:35.656Z,10.24
2023-04-20T17:16:25.392Z,10.19
2023-04-20T17:21:19.534Z,10.30
2023-04-20T17:26:09.117Z,10.45
2023-04-20T17:30:59.346Z,10.61
2023-04-20T17:35:52.000Z,10.68
2023-04-20T17:40:45.160Z,10.76
2023-04-20T17:45:35.247Z,10.76
2023-04-20T17:50:24.922Z,10.92
2023-04-20T17:55:14.504Z,10.82
2023-04-20T18:00:07.893Z,10.71
2023-04-20T18:05:06.566Z,10.70
2023-04-20T18:09:56.357Z,10.50
2023-04-20T18:14:45.972Z,10.46
2023-04-20T18:19:38.274Z,10.45
2023-04-20T18:24:28.014Z,10.33
2023-04-20T18:29:19.951Z,10.15
2023-04-20T18:34:14.112Z,10.18
2023-04-20T18:39:09.697Z,10.03
2023-04-20T18:44:01.496Z,9.91
2023-04-20T18:48:51.168Z,9.79
2023-04-20T18:53:40.766Z,9.64
2023-04-20T18:58:33.504Z,9.57
2023-04-20T19:03:24.159Z,9.39
2023-04-20T19:08:16.678Z,9.26
2023-04-20T19:13:06.286Z,9.15
2023-04-20T19:17:59.279Z,9.00
2023-04-20T19:22:50.196Z,9.01
2023-04-20T19:27:39.776Z,8.89
2023-04-20T19:32:30.333Z,8.85
2023-04-20T19:37:23.951Z,8.80
2023-04-20T19:42:13.622Z,8.73
2023-04-20T19:47:03.265Z,8.79
2023-04-20T19:51:52.907Z,8.77
2023-04-20T19:56:45.227Z,8.82
2023-04-20T20:01:35.189Z,8.72
2023-04-20T20:06:25.039Z,8.67
2023-04-20T20:11:14.779Z,8.61
2023-04-20T20:16:07.526Z,8.60
2023-04-20T20:20:57.198Z,8.52
2023-04-20T20:25:46.749Z,8.41
2023-04-20T20:30:36.604Z,8.35
2023-04-20T20:35:32.822Z,8.27
2023-04-20T20:40:22.946Z,8.29
2023-04-20T20:45:14.706Z,8.26
2023-04-20T20:50:04.910Z,8.16
2023-04-20T20:55:05.190Z,8.17
2023-04-20T20:59:57.824Z,8.19
2023-04-20T21:04:48.092Z,8.24
2023-04-20T21:09:37.702Z,8.29
2023-04-20T21:14:31.903Z,8.36
2023-04-20T21:19:21.655Z,8.39
2023-04-20T21:24:11.308Z,8.39
2023-04-20T21:29:02.057Z,8.36
2023-04-20T21:33:54.192Z,8.36
2023-04-20T21:38:45.878Z,8.37
2023-04-20T21:43:35.463Z,8.38
2023-04-20T21:48:25.254Z,8.22
2023-04-20T21:53:17.455Z,8.21
2023-04-20T21:58:07.185Z,8.20
2023-04-20T22:02:56.929Z,8.21
2023-04-20T22:07:46.887Z,8.16
2023-04-20T22:12:40.836Z,8.23
2023-04-20T22:17:31.775Z,8.24
2023-04-20T22:22:23.420Z,8.16
2023-04-20T22:27:13.296Z,8.13
2023-04-20T22:32:05.786Z,8.07
2023-04-20T22:36:55.453Z,8.05
2023-04-20T22:41:45.061Z,8.10
2023-04-20T22:46:34.697Z,7.95
2023-04-20T22:51:29.274Z,7.92
2023-04-20T22:56:18.852Z,7.83
2023-04-20T23:01:08.716Z,7.81
2023-04-20T23:05:59.290Z,7.77
2023-04-20T23:10:51.795Z,7.65
2023-04-20T23:15:42.585Z,7.51
2023-04-20T23:20:32.270Z,7.45
2023-04-20T23:25:21.953Z,7.31
2023-04-20T23:30:15.986Z,7.32
2023-04-20T23:35:08.214Z,7.34
2023-04-20T23:40:00.866Z,7.32
2023-04-20T23:44:50.521Z,7.27
2023-04-20T23:49:42.948Z,7.21
2023-04-20T23:54:33.486Z,7.15
2023-04-20T23:59:23.200Z,7.08
